createdAt,value
2023-03-19T00:03:00.610Z,46.18
2023-03-19T00:06:02.687Z,46.35
2023-03-19T00:09:04.591Z,46.34
2023-03-19T00:12:06.845Z,46.53
2023-03-19T00:15:14.062Z,46.55
2023-03-19T00:18:16.148Z,46.54
2023-03-19T00:21:17.677Z,46.89
2023-03-19T00:24:19.346Z,47.11
2023-03-19T00:27:21.038Z,47.06
2023-03-19T00:30:24.072Z,47.21
2023-03-19T00:33:26.737Z,47.23
2023-03-19T00:36:30.072Z,47.30
2023-03-19T00:39:32.314Z,47.29
2023-03-19T00:42:34.279Z,47.52
2023-03-19T00:45:36.051Z,46.98
2023-03-19T00:48:37.704Z,47.40
2023-03-19T00:51:43.615Z,47.42
2023-03-19T00:54:45.372Z,47.35
2023-03-19T00:57:46.915Z,47.24
2023-03-19T01:00:48.609Z,47.07
2023-03-19T01:03:50.126Z,47.33
2023-03-19T01:06:51.653Z,47.40
2023-03-19T01:09:53.262Z,47.19
2023-03-19T01:12:54.752Z,46.99
2023-03-19T01:15:56.614Z,47.12
2023-03-19T01:18:58.533Z,46.99
2023-03-19T01:22:00.150Z,47.08
2023-03-19T01:25:02.183Z,47.12
2023-03-19T01:28:03.960Z,47.09
2023-03-19T01:31:07.720Z,47.58
2023-03-19T01:34:36.660Z,47.61
2023-03-19T01:37:43.940Z,47.42
2023-03-19T01:40:48.577Z,46.86
2023-03-19T01:43:50.622Z,46.99
2023-03-19T01:47:26.067Z,46.83
2023-03-19T01:50:53.833Z,46.67
2023-03-19T01:54:19.073Z,46.10
2023-03-19T01:57:24.514Z,46.34
2023-03-19T02:00:39.194Z,46.19
2023-03-19T02:03:42.322Z,46.29
2023-03-19T02:07:00.735Z,46.19
2023-03-19T02:10:07.228Z,45.96
2023-03-19T02:13:08.878Z,45.65
2023-03-19T02:16:11.053Z,45.54
2023-03-19T02:19:19.046Z,45.57
2023-03-19T02:22:23.786Z,45.57
2023-03-19T02:25:33.060Z,45.55
2023-03-19T02:28:39.773Z,45.49
2023-03-19T02:31:42.210Z,45.90
2023-03-19T02:34:44.610Z,46.36
2023-03-19T02:37:46.915Z,46.14
2023-03-19T02:41:04.539Z,46.56
2023-03-19T02:44:06.637Z,46.72
2023-03-19T02:47:08.385Z,47.22
2023-03-19T02:50:10.467Z,47.76
2023-03-19T02:53:12.236Z,47.92
2023-03-19T02:56:13.766Z,48.00
2023-03-19T02:59:15.472Z,48.42
2023-03-19T03:02:17.573Z,48.90
2023-03-19T03:05:19.054Z,49.09
2023-03-19T03:08:21.637Z,48.96
2023-03-19T03:11:23.164Z,48.77
2023-03-19T03:14:24.832Z,47.76
2023-03-19T03:17:27.003Z,47.85
2023-03-19T03:20:28.517Z,48.05
2023-03-19T03:23:30.008Z,48.92
2023-03-19T03:26:31.742Z,48.98
2023-03-19T03:29:33.197Z,48.97
2023-03-19T03:32:36.729Z,48.77
2023-03-19T03:35:38.895Z,49.11
2023-03-19T03:38:40.688Z,49.28
2023-03-19T03:41:42.431Z,49.71
2023-03-19T03:44:44.523Z,49.22
2023-03-19T03:47:46.305Z,49.18
2023-03-19T03:50:47.931Z,49.17
2023-03-19T03:53:53.246Z,49.12
2023-03-19T03:56:54.837Z,49.15
2023-03-19T03:59:56.509Z,49.13
2023-03-19T04:02:59.299Z,49.00
2023-03-19T04:06:00.857Z,48.79
2023-03-19T04:09:02.923Z,48.93
2023-03-19T04:12:04.873Z,48.99
2023-03-19T04:15:08.076Z,49.08
2023-03-19T04:18:11.743Z,49.25
2023-03-19T04:21:13.604Z,49.31
2023-03-19T04:24:15.495Z,49.26
2023-03-19T04:27:17.043Z,49.37
2023-03-19T04:30:18.972Z,49.38
2023-03-19T04:33:20.569Z,49.38
2023-03-19T04:36:22.512Z,49.70
2023-03-19T04:39:24.731Z,49.76
2023-03-19T04:42:26.974Z,49.68
2023-03-19T04:45:39.129Z,49.59
2023-03-19T04:48:41.055Z,49.35
2023-03-19T04:51:42.757Z,49.56
2023-03-19T04:54:44.273Z,49.39
2023-03-19T04:57:45.864Z,49.62
2023-03-19T05:00:48.040Z,49.30
2023-03-19T05:03:54.310Z,49.07
2023-03-19T05:06:57.416Z,49.59
2023-03-19T05:09:59.245Z,49.64
2023-03-19T05:13:00.846Z,49.46
2023-03-19T05:16:02.674Z,49.64
2023-03-19T05:19:05.252Z,49.76
2023-03-19T05:22:07.653Z,49.72
2023-03-19T05:25:09.825Z,49.71
2023-03-19T05:28:14.857Z,49.65
2023-03-19T05:31:17.307Z,49.71
2023-03-19T05:34:23.445Z,49.70
2023-03-19T05:37:26.667Z,49.48
2023-03-19T05:40:32.022Z,49.53
2023-03-19T05:43:38.169Z,49.46
2023-03-19T05:46:43.729Z,49.62
2023-03-19T05:49:46.046Z,49.60
2023-03-19T05:52:47.860Z,49.51
2023-03-19T05:55:49.367Z,49.53
2023-03-19T05:58:51.057Z,49.47
2023-03-19T06:01:57.140Z,49.78
2023-03-19T06:04:58.823Z,49.95
2023-03-19T06:08:04.254Z,50.67
2023-03-19T06:11:19.292Z,50.76
2023-03-19T06:14:26.785Z,51.19
2023-03-19T06:17:51.218Z,51.20
2023-03-19T06:20:52.978Z,51.22
2023-03-19T06:23:54.659Z,51.40
2023-03-19T06:27:03.701Z,51.14
2023-03-19T06:30:05.849Z,51.13
2023-03-19T06:33:08.329Z,50.99
2023-03-19T06:36:09.945Z,51.19
2023-03-19T06:39:11.552Z,50.99
2023-03-19T06:42:13.243Z,51.44
2023-03-19T06:45:16.523Z,50.80
2023-03-19T06:48:18.783Z,50.55
2023-03-19T06:51:20.454Z,50.37
2023-03-19T06:54:22.374Z,50.16
2023-03-19T06:57:23.895Z,50.28
2023-03-19T07:00:25.416Z,50.00
2023-03-19T07:03:26.939Z,49.52
2023-03-19T07:06:28.433Z,49.21
2023-03-19T07:09:29.916Z,49.25
2023-03-19T07:12:31.531Z,48.84
2023-03-19T07:15:33.908Z,48.51
2023-03-19T07:18:35.919Z,48.21
2023-03-19T07:21:37.424Z,47.82
2023-03-19T07:24:38.879Z,47.47
2023-03-19T07:27:40.397Z,47.52
2023-03-19T07:30:42.097Z,47.30
2023-03-19T07:33:43.684Z,46.91
2023-03-19T07:36:45.146Z,46.76
2023-03-19T07:39:46.890Z,46.51
2023-03-19T07:42:48.413Z,46.52
2023-03-19T07:45:49.869Z,46.36
2023-03-19T07:48:51.360Z,46.13
2023-03-19T07:51:53.855Z,46.04
2023-03-19T07:54:56.035Z,45.44
2023-03-19T07:57:57.703Z,45.11
2023-03-19T08:00:59.226Z,44.35
2023-03-19T08:04:00.787Z,43.76
2023-03-19T08:07:02.289Z,43.88
2023-03-19T08:10:05.557Z,43.68
2023-03-19T08:13:07.165Z,43.49
2023-03-19T08:16:09.316Z,43.26
2023-03-19T08:19:10.770Z,42.81
2023-03-19T08:22:12.649Z,42.20
2023-03-19T08:25:14.588Z,42.44
2023-03-19T08:28:16.177Z,42.66
2023-03-19T08:31:17.701Z,42.96
2023-03-19T08:34:19.429Z,42.33
2023-03-19T08:37:20.894Z,43.76
2023-03-19T08:40:23.390Z,44.52
2023-03-19T08:43:25.133Z,45.22
2023-03-19T08:46:27.611Z,46.03
2023-03-19T08:49:29.454Z,46.64
2023-03-19T08:52:31.279Z,47.07
2023-03-19T08:55:32.906Z,47.38
2023-03-19T08:58:34.827Z,47.13
2023-03-19T09:01:37.257Z,47.11
2023-03-19T09:04:43.243Z,47.19
2023-03-19T09:07:45.551Z,46.96
2023-03-19T09:10:47.115Z,47.37
2023-03-19T09:13:48.748Z,47.59
2023-03-19T09:16:50.314Z,48.21
2023-03-19T09:19:51.879Z,47.75
2023-03-19T09:22:53.397Z,47.00
2023-03-19T09:25:54.965Z,46.72
2023-03-19T09:28:56.567Z,46.70
2023-03-19T09:31:58.227Z,46.71
2023-03-19T09:34:59.729Z,46.89
2023-03-19T09:38:02.137Z,46.55
2023-03-19T09:41:31.530Z,45.45
2023-03-19T09:44:38.057Z,45.71
2023-03-19T09:47:40.088Z,45.70
2023-03-19T09:50:42.458Z,45.84
2023-03-19T09:53:58.605Z,45.02
2023-03-19T09:57:01.100Z,45.06
2023-03-19T10:00:18.987Z,45.53
2023-03-19T10:03:52.387Z,45.10
2023-03-19T10:07:04.128Z,45.32
2023-03-19T10:10:33.413Z,46.24
2023-03-19T10:14:06.941Z,47.52
2023-03-19T10:17:16.421Z,46.77
2023-03-19T10:20:30.374Z,47.16
2023-03-19T10:23:45.684Z,46.90
2023-03-19T10:26:47.831Z,47.20
2023-03-19T10:29:49.427Z,47.82
2023-03-19T10:33:17.373Z,48.91
2023-03-19T10:36:22.163Z,49.45
2023-03-19T10:39:24.085Z,50.22
2023-03-19T10:42:39.280Z,50.77
2023-03-19T10:45:41.299Z,50.84
2023-03-19T10:48:45.846Z,50.70
2023-03-19T10:51:48.810Z,50.75
2023-03-19T10:54:55.958Z,50.35
2023-03-19T10:58:06.730Z,49.25
2023-03-19T11:01:12.975Z,49.58
2023-03-19T11:04:19.421Z,49.80
2023-03-19T11:07:21.783Z,49.51
2023-03-19T11:10:25.833Z,49.38
2023-03-19T11:13:27.647Z,49.84
2023-03-19T11:16:29.245Z,48.94
2023-03-19T11:19:34.451Z,48.50
2023-03-19T11:22:37.698Z,47.98
2023-03-19T11:25:51.810Z,47.95
2023-03-19T11:28:53.493Z,48.01
2023-03-19T11:32:26.386Z,47.63
2023-03-19T11:36:18.914Z,47.24
2023-03-19T11:39:35.675Z,46.97
2023-03-19T11:42:55.905Z,46.97
2023-03-19T11:46:19.738Z,47.51
2023-03-19T11:49:29.927Z,47.09
2023-03-19T11:53:02.575Z,47.12
2023-03-19T11:56:33.641Z,47.02
2023-03-19T12:00:07.948Z,47.38
2023-03-19T12:03:22.375Z,47.68
2023-03-19T12:06:57.055Z,47.77
2023-03-19T12:10:35.273Z,47.46
2023-03-19T12:13:46.054Z,47.15
2023-03-19T12:17:07.242Z,47.23
2023-03-19T12:20:42.181Z,46.97
2023-03-19T12:23:53.726Z,46.61
2023-03-19T12:27:04.327Z,46.93
2023-03-19T12:30:18.122Z,47.30
2023-03-19T12:33:32.516Z,47.13
2023-03-19T12:36:45.872Z,48.05
2023-03-19T12:40:22.098Z,48.81
2023-03-19T12:43:42.173Z,49.27
2023-03-19T12:46:58.570Z,49.43
2023-03-19T12:50:05.576Z,49.72
2023-03-19T12:53:17.177Z,49.76
2023-03-19T12:56:39.284Z,50.49
2023-03-19T12:59:54.368Z,50.84
2023-03-19T13:03:05.160Z,51.57
2023-03-19T13:06:12.937Z,52.25
2023-03-19T13:09:43.841Z,52.67
2023-03-19T13:12:47.853Z,52.52
2023-03-19T13:15:52.652Z,52.01
2023-03-19T13:19:01.365Z,51.92
2023-03-19T13:22:09.776Z,51.33
2023-03-19T13:25:17.591Z,51.56
2023-03-19T13:28:37.955Z,50.92
2023-03-19T13:31:39.844Z,50.88
2023-03-19T13:34:41.534Z,51.34
2023-03-19T13:37:43.869Z,51.22
2023-03-19T13:40:52.526Z,50.49
2023-03-19T13:43:55.024Z,50.22
2023-03-19T13:46:57.625Z,49.70
2023-03-19T13:50:20.153Z,49.30
2023-03-19T13:53:34.649Z,48.77
2023-03-19T13:57:08.687Z,49.49
2023-03-19T14:00:43.874Z,50.63
2023-03-19T14:04:16.878Z,51.19
2023-03-19T14:07:21.038Z,51.54
2023-03-19T14:10:28.976Z,47.77
2023-03-19T14:13:47.367Z,50.20
2023-03-19T14:16:52.721Z,51.72
2023-03-19T14:19:54.682Z,52.71
2023-03-19T14:23:11.667Z,52.76
2023-03-19T14:26:23.192Z,51.58
2023-03-19T14:29:26.428Z,50.82
2023-03-19T14:32:40.926Z,52.06
2023-03-19T14:35:46.654Z,53.74
2023-03-19T14:38:55.944Z,54.46
2023-03-19T14:42:22.359Z,55.66
2023-03-19T14:45:35.180Z,55.56
2023-03-19T14:48:51.157Z,55.72
2023-03-19T14:52:07.658Z,55.87
2023-03-19T14:55:12.769Z,55.73
2023-03-19T14:58:14.859Z,56.14
2023-03-19T15:01:17.294Z,56.76
2023-03-19T15:04:22.783Z,56.76
2023-03-19T15:07:35.021Z,57.69
2023-03-19T15:11:03.471Z,58.74
2023-03-19T15:14:17.163Z,59.93
2023-03-19T15:17:25.719Z,60.62
2023-03-19T15:20:38.030Z,60.99
2023-03-19T15:23:41.630Z,60.74
2023-03-19T15:26:43.691Z,60.34
2023-03-19T15:29:49.014Z,60.11
2023-03-19T15:33:07.833Z,59.18
2023-03-19T15:36:12.914Z,58.68
2023-03-19T15:39:19.404Z,57.13
2023-03-19T15:42:23.241Z,56.70
2023-03-19T15:45:27.025Z,56.95
2023-03-19T15:48:38.225Z,56.74
2023-03-19T15:51:40.723Z,56.30
2023-03-19T15:54:42.919Z,56.56
2023-03-19T15:57:45.221Z,57.10
2023-03-19T16:00:47.096Z,57.81
2023-03-19T16:03:59.859Z,58.46
2023-03-19T16:07:01.899Z,59.01
2023-03-19T16:10:27.998Z,59.05
2023-03-19T16:13:39.542Z,59.32
2023-03-19T16:16:42.223Z,59.11
2023-03-19T16:19:56.393Z,59.36
2023-03-19T16:23:01.110Z,56.04
2023-03-19T16:26:15.110Z,51.40
2023-03-19T16:29:28.727Z,53.06
2023-03-19T16:32:32.143Z,52.05
2023-03-19T16:35:34.920Z,51.75
2023-03-19T16:38:44.370Z,52.45
2023-03-19T16:42:10.965Z,51.90
2023-03-19T16:45:15.401Z,50.78
2023-03-19T16:48:16.900Z,49.84
2023-03-19T16:51:21.127Z,50.36
2023-03-19T16:54:23.716Z,51.55
2023-03-19T16:57:25.747Z,53.15
2023-03-19T17:00:31.383Z,53.31
2023-03-19T17:03:33.404Z,53.71
2023-03-19T17:06:34.875Z,54.53
2023-03-19T17:09:36.634Z,54.28
2023-03-19T17:12:38.403Z,55.49
2023-03-19T17:15:42.289Z,56.04
2023-03-19T17:18:44.945Z,57.42
2023-03-19T17:21:48.797Z,58.11
2023-03-19T17:24:50.572Z,59.02
2023-03-19T17:27:52.170Z,59.66
2023-03-19T17:30:53.775Z,60.79
2023-03-19T17:34:31.795Z,62.35
2023-03-19T17:37:33.322Z,63.10
2023-03-19T17:40:35.472Z,63.45
2023-03-19T17:43:37.285Z,64.42
2023-03-19T17:46:42.841Z,63.67
2023-03-19T17:49:45.203Z,67.08
2023-03-19T17:52:47.194Z,67.25
2023-03-19T17:55:48.661Z,68.67
2023-03-19T17:58:50.593Z,69.40
2023-03-19T18:01:52.312Z,68.34
2023-03-19T18:04:53.796Z,57.45
2023-03-19T18:07:56.277Z,55.62
2023-03-19T18:10:57.790Z,54.92
2023-03-19T18:13:59.371Z,54.70
2023-03-19T18:17:01.195Z,54.34
2023-03-19T18:20:04.377Z,54.27
2023-03-19T18:23:06.683Z,54.41
2023-03-19T18:26:08.689Z,54.17
2023-03-19T18:29:10.304Z,54.30
2023-03-19T18:32:15.955Z,54.30
2023-03-19T18:35:21.073Z,54.09
2023-03-19T18:38:24.962Z,54.08
2023-03-19T18:41:30.999Z,54.87
2023-03-19T18:44:38.268Z,54.93
2023-03-19T18:47:41.380Z,55.09
2023-03-19T18:50:42.984Z,55.40
2023-03-19T18:53:44.515Z,56.28
2023-03-19T18:56:47.949Z,58.57
2023-03-19T18:59:49.552Z,58.47
2023-03-19T19:02:53.148Z,58.79
2023-03-19T19:05:56.089Z,58.78
2023-03-19T19:08:57.655Z,59.22
2023-03-19T19:12:00.758Z,59.49
2023-03-19T19:15:05.025Z,59.99
2023-03-19T19:18:21.643Z,59.67
2023-03-19T19:21:23.458Z,60.19
2023-03-19T19:24:25.051Z,60.71
2023-03-19T19:27:26.749Z,60.63
2023-03-19T19:30:28.791Z,60.72
2023-03-19T19:33:36.953Z,60.71
2023-03-19T19:36:38.462Z,60.65
2023-03-19T19:39:40.219Z,61.16
2023-03-19T19:42:43.983Z,60.42
2023-03-19T19:45:48.436Z,60.55
2023-03-19T19:48:50.140Z,60.60
2023-03-19T19:51:51.808Z,60.48
2023-03-19T19:54:53.448Z,60.81
2023-03-19T19:57:57.432Z,60.50
2023-03-19T20:01:04.224Z,60.71
2023-03-19T20:04:06.196Z,60.46
2023-03-19T20:07:07.771Z,60.97
2023-03-19T20:10:10.109Z,60.48
2023-03-19T20:13:22.716Z,60.57
2023-03-19T20:16:26.023Z,60.21
2023-03-19T20:19:27.531Z,60.25
2023-03-19T20:22:29.610Z,60.37
2023-03-19T20:25:34.984Z,60.51
2023-03-19T20:28:36.676Z,60.68
2023-03-19T20:31:38.585Z,60.67
2023-03-19T20:34:40.131Z,60.65
2023-03-19T20:37:41.640Z,61.09
2023-03-19T20:40:52.112Z,61.37
2023-03-19T20:43:55.105Z,61.34
2023-03-19T20:46:56.617Z,61.65
2023-03-19T20:49:58.197Z,59.23
2023-03-19T20:53:03.570Z,58.46
2023-03-19T20:56:11.592Z,58.71
2023-03-19T20:59:13.038Z,59.12
2023-03-19T21:02:20.443Z,58.92
2023-03-19T21:05:23.600Z,58.91
2023-03-19T21:08:37.160Z,58.70
2023-03-19T21:11:41.921Z,58.30
2023-03-19T21:14:43.440Z,58.49
2023-03-19T21:17:44.974Z,58.17
2023-03-19T21:20:50.880Z,58.13
2023-03-19T21:24:01.068Z,58.16
2023-03-19T21:27:04.068Z,58.08
2023-03-19T21:30:06.518Z,58.13
2023-03-19T21:33:23.207Z,58.59
2023-03-19T21:36:24.768Z,57.87
2023-03-19T21:39:26.266Z,57.75
2023-03-19T21:42:30.349Z,57.87
2023-03-19T21:45:36.402Z,57.82
2023-03-19T21:48:39.910Z,57.63
2023-03-19T21:51:43.879Z,57.71
2023-03-19T21:54:45.918Z,57.59
2023-03-19T21:57:47.585Z,58.01
2023-03-19T22:00:49.588Z,57.41
2023-03-19T22:03:52.992Z,57.55
2023-03-19T22:06:54.535Z,57.48
2023-03-19T22:09:55.987Z,57.53
2023-03-19T22:12:57.584Z,57.39
2023-03-19T22:16:00.389Z,57.36
2023-03-19T22:19:02.256Z,57.36
2023-03-19T22:22:03.872Z,57.06
2023-03-19T22:25:05.729Z,57.29
2023-03-19T22:28:35.882Z,57.19
2023-03-19T22:31:37.489Z,56.90
2023-03-19T22:34:39.077Z,56.89
2023-03-19T22:37:40.746Z,56.90
2023-03-19T22:40:45.969Z,56.83
2023-03-19T22:43:47.890Z,56.48
2023-03-19T22:46:49.655Z,56.53
2023-03-19T22:49:51.991Z,56.83
2023-03-19T22:52:54.586Z,56.83
2023-03-19T22:55:57.019Z,56.64
2023-03-19T22:58:58.481Z,56.68
2023-03-19T23:02:00.304Z,56.88
2023-03-19T23:05:02.174Z,57.38
2023-03-19T23:08:06.183Z,57.33
2023-03-19T23:11:08.602Z,57.35
2023-03-19T23:14:26.139Z,57.09
2023-03-19T23:17:29.899Z,57.06
2023-03-19T23:20:35.027Z,57.28
2023-03-19T23:23:36.563Z,57.48
2023-03-19T23:26:40.496Z,57.11
2023-03-19T23:29:44.267Z,57.33
2023-03-19T23:32:45.747Z,57.32
2023-03-19T23:35:48.255Z,57.29
2023-03-19T23:38:49.755Z,57.48
2023-03-19T23:41:57.128Z,57.44
2023-03-19T23:45:01.939Z,57.61
2023-03-19T23:48:06.238Z,57.32
2023-03-19T23:51:10.947Z,57.64
2023-03-19T23:54:32.613Z,57.15
2023-03-19T23:57:37.108Z,56.98
